Bratsk, Russia

8:27 PM IRKT on February 06, 2016 (GMT +0800)
Bratsk | | Change Station
CLOSE
Current Station
Airport
Location: Bratsk,
Elevation: 1608 ft
Nearby Weather Stations

Elev 1608 ft 56.37 °N, 101.70 °E | Updated 27 minutes ago

Light Snow Showers
Light Showers Snow
23 °F
Feels Like 15 °F
N
7
Wind Variable Wind from SSW

Today
High -- | Low -- °F
--% Chance of Precip.
Yesterday
High -- | Low -- °F
Precip. -- in
Pressure 29.89 in
Visibility 6.2 miles
Clouds Mostly Cloudy 1700 ft
Windchill 15 °F
Dew Point 21 °F
Humidity 93%
Rainfall 0.00 in
Snow Depth Not available.
9:01 AM 5:53 PM
Waning Crescent, 6% visible
METAR UIBB 061200Z 21003MPS 9999 -SHSN BKN017CB M05/M06 Q1012 R30/491032 NOSIG RMK QFE716/0955
Pressure 29.89 in
Visibility 6.2 miles
Clouds Mostly Cloudy 1700 ft
Windchill 15 °F
Dew Point 21 °F
Humidity 93%
Rainfall 0.00 in
Snow Depth Not available.
9:01 AM 5:53 PM
Waning Crescent, 6% visible
METAR UIBB 061200Z 21003MPS 9999 -SHSN BKN017CB M05/M06 Q1012 R30/491032 NOSIG RMK QFE716/0955

10-Day Weather Forecast

Almanac

Astronomy

Feb. 06, 2016 Rise Set
Actual Time
Civil Twilight
Nautical Twilight
Astronomical Twilight
Moon
Length of Visible Light
Length of Day
Tomorrow will be .
, % of the Moon is Illuminated

Today's Extremes

Country Highs Country Lows

Community

WunderPhotos

Upload Photos

1,890,944 photos uploaded!

WunderBlog® & News

Nearby

Air Quality

  Air Quality AQ Index Pollutant
Not available.

Snow Depth

Station Depth Elevation

Earthquake Activity

City Distance Mag. Time & Date
Minimum magnitude displayed is 2.5.

Coastal Water Temperatures

Place Temperature

Stations

Nearby Weather Stations

Station Location Temp. Windchill Dew Point Humidity Wind Precip. Elev Updated Type